createdAt,value
2022-09-10T00:01:22.353Z,21.73
2022-09-10T00:04:17.335Z,21.88
2022-09-10T00:07:04.343Z,22.73
2022-09-10T00:09:37.416Z,21.20
2022-09-10T00:12:24.359Z,20.13
2022-09-10T00:14:57.716Z,22.55
2022-09-10T00:17:45.340Z,22.10
2022-09-10T00:20:25.355Z,20.77
2022-09-10T00:23:12.333Z,20.58
2022-09-10T00:25:52.372Z,20.02
2022-09-10T00:28:39.470Z,19.25
2022-09-10T00:31:20.413Z,19.67
2022-09-10T00:34:08.353Z,21.30
2022-09-10T00:36:53.341Z,21.52
2022-09-10T00:39:47.390Z,21.83
2022-09-10T00:42:41.340Z,20.42
2022-09-10T00:45:30.381Z,20.75
2022-09-10T00:48:18.361Z,19.20
2022-09-10T00:51:16.373Z,19.30
2022-09-10T00:54:11.367Z,21.25
2022-09-10T00:57:01.357Z,20.17
2022-09-10T00:59:34.432Z,19.85
2022-09-10T01:02:21.390Z,20.20
2022-09-10T01:04:55.464Z,21.42
2022-09-10T01:07:42.371Z,22.08
2022-09-10T01:10:30.452Z,19.85
2022-09-10T01:13:39.383Z,19.75
2022-09-10T01:16:37.473Z,21.17
2022-09-10T01:19:36.373Z,19.40
2022-09-10T01:23:04.384Z,21.88
2022-09-10T01:25:59.458Z,18.90
2022-09-10T01:28:56.388Z,19.23
2022-09-10T01:32:01.401Z,20.27
2022-09-10T01:35:18.372Z,19.88
2022-09-10T01:38:11.404Z,20.38
2022-09-10T01:40:46.456Z,22.08
2022-09-10T01:43:33.387Z,19.95
2022-09-10T01:46:25.393Z,19.60
2022-09-10T01:49:43.398Z,19.92
2022-09-10T01:52:42.399Z,21.75
2022-09-10T01:55:41.926Z,22.25
2022-09-10T01:58:43.427Z,19.08
2022-09-10T02:01:39.465Z,20.00
2022-09-10T02:04:28.407Z,20.52
2022-09-10T02:07:10.399Z,21.92
2022-09-10T02:10:05.410Z,21.10
2022-09-10T02:12:59.402Z,20.83
2022-09-10T02:15:54.423Z,20.45
2022-09-10T02:18:50.413Z,21.10
2022-09-10T02:21:38.408Z,22.17
2022-09-10T02:24:22.405Z,23.73
2022-09-10T02:27:09.410Z,23.20
2022-09-10T02:29:42.531Z,21.13
2022-09-10T02:32:29.425Z,21.95
2022-09-10T02:35:09.421Z,22.65
2022-09-10T02:38:03.421Z,22.08
2022-09-10T02:40:50.418Z,23.80
2022-09-10T02:43:23.599Z,24.70
2022-09-10T02:46:14.399Z,23.85
2022-09-10T02:48:47.510Z,22.83
2022-09-10T02:51:34.433Z,22.13
2022-09-10T02:54:07.485Z,23.60
2022-09-10T02:56:56.439Z,23.65
2022-09-10T02:59:33.003Z,21.55
2022-09-10T03:02:19.541Z,23.13
2022-09-10T03:05:00.421Z,22.65
2022-09-10T03:07:47.450Z,22.25
2022-09-10T03:10:20.508Z,24.02
2022-09-10T03:13:07.421Z,24.85
2022-09-10T03:15:40.509Z,23.50
2022-09-10T03:18:29.439Z,24.92
2022-09-10T03:21:02.519Z,25.35
2022-09-10T03:23:51.430Z,23.20
2022-09-10T03:26:33.428Z,24.85
2022-09-10T03:29:22.445Z,23.65
2022-09-10T03:31:55.504Z,22.73
2022-09-10T03:34:42.468Z,24.77
2022-09-10T03:37:15.803Z,24.65
2022-09-10T03:40:02.504Z,23.23
2022-09-10T03:42:35.531Z,24.02
2022-09-10T03:45:22.463Z,24.27
2022-09-10T03:47:55.526Z,24.85
2022-09-10T03:50:42.445Z,26.08
2022-09-10T03:53:22.463Z,27.63
2022-09-10T03:56:19.448Z,27.02
2022-09-10T03:59:06.460Z,28.05
2022-09-10T04:01:42.201Z,26.45
2022-09-10T04:04:44.453Z,23.85
2022-09-10T04:07:31.469Z,24.08
2022-09-10T04:10:04.535Z,23.33
2022-09-10T04:12:52.476Z,22.63
2022-09-10T04:15:26.577Z,23.55
2022-09-10T04:18:14.463Z,25.80
2022-09-10T04:20:48.260Z,23.13
2022-09-10T04:23:34.471Z,22.35
2022-09-10T04:26:07.564Z,22.27
2022-09-10T04:28:54.481Z,20.73
2022-09-10T04:31:27.569Z,22.15
2022-09-10T04:34:14.487Z,23.73
2022-09-10T04:36:54.499Z,24.08
2022-09-10T04:39:50.510Z,21.45
2022-09-10T04:42:38.486Z,24.23
2022-09-10T04:45:20.504Z,23.83
2022-09-10T04:48:07.497Z,23.02
2022-09-10T04:51:14.361Z,25.13
2022-09-10T04:53:54.496Z,23.45
2022-09-10T04:56:27.624Z,23.77
2022-09-10T04:59:14.517Z,25.02
2022-09-10T05:01:50.346Z,25.95
2022-09-10T05:04:40.512Z,24.52
2022-09-10T05:07:20.485Z,24.40
2022-09-10T05:10:16.497Z,24.02
2022-09-10T05:13:10.512Z,24.92
2022-09-10T05:16:05.575Z,24.45
2022-09-10T05:18:59.516Z,22.52
2022-09-10T05:21:53.504Z,23.40
2022-09-10T05:24:40.514Z,23.45
2022-09-10T05:27:13.567Z,24.75
2022-09-10T05:30:00.489Z,25.63
2022-09-10T05:32:33.625Z,24.60
2022-09-10T05:35:20.514Z,25.15
2022-09-10T05:37:53.650Z,25.27
2022-09-10T05:40:41.509Z,25.00
2022-09-10T05:43:17.630Z,24.88
2022-09-10T05:46:04.639Z,26.02
2022-09-10T05:48:41.392Z,25.67
2022-09-10T05:51:28.584Z,22.70
2022-09-10T05:54:01.631Z,23.67
2022-09-10T05:56:48.544Z,24.52
2022-09-10T05:59:28.544Z,22.45
2022-09-10T06:02:29.609Z,22.08
2022-09-10T06:05:16.538Z,23.52
2022-09-10T06:07:49.653Z,24.70
2022-09-10T06:10:43.540Z,22.80
2022-09-10T06:13:31.530Z,23.58
2022-09-10T06:16:05.210Z,22.85
2022-09-10T06:18:51.548Z,24.08
2022-09-10T06:21:32.528Z,25.70
2022-09-10T06:24:30.523Z,26.23
2022-09-10T06:27:24.549Z,25.52
2022-09-10T06:30:11.548Z,23.02
2022-09-10T06:32:44.620Z,23.02
2022-09-10T06:35:33.530Z,24.38
2022-09-10T06:38:13.553Z,24.20
2022-09-10T06:41:01.538Z,24.67
2022-09-10T06:43:46.556Z,25.42
2022-09-10T06:47:19.666Z,22.42
2022-09-10T06:49:47.568Z,22.52
2022-09-10T06:52:27.533Z,23.60
2022-09-10T06:55:21.565Z,20.30
2022-09-10T06:58:08.545Z,20.48
2022-09-10T07:00:49.583Z,24.00
2022-09-10T07:03:36.571Z,22.10
2022-09-10T07:06:21.564Z,22.42
2022-09-10T07:09:16.573Z,25.33
2022-09-10T07:12:11.558Z,25.52
2022-09-10T07:15:05.575Z,25.08
2022-09-10T07:17:52.556Z,26.35
2022-09-10T07:20:36.555Z,25.27
2022-09-10T07:23:32.566Z,26.35
2022-09-10T07:26:28.558Z,27.83
2022-09-10T07:29:16.972Z,25.00
2022-09-10T07:31:57.564Z,25.20
2022-09-10T07:34:44.596Z,24.27
2022-09-10T07:37:19.632Z,25.33
2022-09-10T07:40:06.592Z,25.60
2022-09-10T07:42:48.579Z,26.73
2022-09-10T07:46:04.130Z,25.98
2022-09-10T07:48:51.634Z,25.13
2022-09-10T07:51:24.829Z,24.55
2022-09-10T07:54:12.813Z,27.80
2022-09-10T07:56:45.659Z,24.73
2022-09-10T07:59:32.578Z,25.80
2022-09-10T08:02:12.659Z,23.63
2022-09-10T08:05:06.579Z,24.23
2022-09-10T08:07:58.598Z,25.65
2022-09-10T08:10:31.662Z,25.60
2022-09-10T08:13:19.631Z,25.60
2022-09-10T08:15:52.721Z,24.25
2022-09-10T08:18:41.160Z,24.52
2022-09-10T08:21:14.701Z,24.08
2022-09-10T08:24:04.588Z,23.13
2022-09-10T08:26:39.558Z,24.17
2022-09-10T08:29:26.606Z,22.80
2022-09-10T08:31:59.726Z,25.33
2022-09-10T08:34:47.634Z,23.90
2022-09-10T08:37:27.637Z,24.52
2022-09-10T08:40:18.682Z,24.95
2022-09-10T08:42:58.532Z,25.40
2022-09-10T08:45:46.696Z,25.02
2022-09-10T08:48:32.622Z,24.48
2022-09-10T08:51:33.638Z,25.08
2022-09-10T08:54:41.640Z,23.05
2022-09-10T08:57:53.637Z,23.35
2022-09-10T09:00:38.679Z,21.10
2022-09-10T09:03:48.671Z,22.85
2022-09-10T09:06:54.654Z,23.52
2022-09-10T09:09:48.666Z,21.80
2022-09-10T09:12:52.668Z,25.77
2022-09-10T09:16:04.693Z,21.88
2022-09-10T09:19:03.658Z,22.65
2022-09-10T09:21:55.643Z,22.35
2022-09-10T09:25:19.639Z,23.73
2022-09-10T09:27:56.448Z,23.15
2022-09-10T09:30:55.656Z,23.15
2022-09-10T09:33:30.221Z,25.23
2022-09-10T09:36:24.669Z,24.65
2022-09-10T09:39:04.655Z,23.92
2022-09-10T09:42:12.660Z,22.15
2022-09-10T09:45:16.657Z,23.95
2022-09-10T09:48:03.636Z,24.00
2022-09-10T09:50:38.911Z,21.88
2022-09-10T09:53:33.643Z,23.33
2022-09-10T09:56:08.749Z,23.48
2022-09-10T09:59:01.399Z,21.48
2022-09-10T10:01:46.901Z,23.83
2022-09-10T10:04:43.774Z,24.23
2022-09-10T10:07:17.730Z,23.08
2022-09-10T10:10:13.649Z,21.63
2022-09-10T10:13:08.656Z,25.50
2022-09-10T10:15:55.704Z,23.52
2022-09-10T10:18:28.859Z,21.52
2022-09-10T10:21:23.650Z,23.92
2022-09-10T10:23:59.298Z,23.83
2022-09-10T10:26:46.688Z,23.65
2022-09-10T10:29:27.781Z,25.00
2022-09-10T10:32:22.713Z,26.15
2022-09-10T10:35:25.643Z,23.95
2022-09-10T10:38:39.740Z,21.42
2022-09-10T10:41:45.372Z,25.48
2022-09-10T10:44:47.642Z,21.90
2022-09-10T10:47:57.665Z,20.55
2022-09-10T10:51:13.553Z,21.70
2022-09-10T10:53:55.641Z,20.65
2022-09-10T10:56:47.735Z,20.63
2022-09-10T10:59:32.818Z,21.95
2022-09-10T11:02:30.747Z,20.50
2022-09-10T11:05:07.781Z,18.38
2022-09-10T11:07:55.675Z,19.40
2022-09-10T11:10:45.776Z,19.67
2022-09-10T11:14:02.722Z,20.35
2022-09-10T11:16:49.114Z,21.45
2022-09-10T11:19:44.717Z,19.80
2022-09-10T11:22:26.789Z,20.20
2022-09-10T11:25:34.725Z,18.90
2022-09-10T11:28:27.554Z,19.55
2022-09-10T11:31:50.702Z,17.10
2022-09-10T11:34:43.558Z,18.25
2022-09-10T11:37:50.097Z,17.70
2022-09-10T11:40:50.722Z,17.67
2022-09-10T11:43:49.731Z,17.38
2022-09-10T11:46:39.778Z,16.25
2022-09-10T11:49:27.855Z,17.42
2022-09-10T11:52:15.738Z,18.33
2022-09-10T11:54:49.821Z,18.38
2022-09-10T11:57:40.768Z,17.25
2022-09-10T12:00:27.018Z,17.35
2022-09-10T12:03:41.914Z,18.65
2022-09-10T12:06:27.860Z,18.77
2022-09-10T12:09:31.766Z,18.88
2022-09-10T12:12:19.535Z,19.52
2022-09-10T12:15:15.784Z,21.00
2022-09-10T12:18:18.891Z,20.67
2022-09-10T12:21:15.733Z,18.83
2022-09-10T12:23:57.787Z,19.65
2022-09-10T12:26:58.780Z,19.15
2022-09-10T12:29:47.732Z,19.88
2022-09-10T12:32:27.133Z,20.13
2022-09-10T12:35:37.782Z,20.88
2022-09-10T12:38:49.985Z,21.45
2022-09-10T12:41:36.778Z,21.77
2022-09-10T12:44:34.421Z,21.88
2022-09-10T12:47:20.759Z,21.85
2022-09-10T12:49:55.836Z,23.30
2022-09-10T12:52:51.737Z,21.98
2022-09-10T12:56:19.781Z,21.48
2022-09-10T12:59:53.776Z,20.27
2022-09-10T13:02:44.760Z,19.00
2022-09-10T13:05:55.829Z,20.42
2022-09-10T13:08:49.780Z,20.15
2022-09-10T13:11:37.787Z,19.50
2022-09-10T13:14:38.790Z,22.75
2022-09-10T13:18:06.768Z,19.20
2022-09-10T13:20:40.870Z,18.65
2022-09-10T13:23:29.781Z,21.13
2022-09-10T13:26:44.799Z,19.83
2022-09-10T13:29:46.784Z,18.73
2022-09-10T13:32:45.787Z,22.15
2022-09-10T13:35:31.780Z,20.55
2022-09-10T13:38:44.764Z,19.95
2022-09-10T13:42:09.782Z,22.50
2022-09-10T13:45:22.781Z,21.67
2022-09-10T13:48:26.764Z,20.77
2022-09-10T13:51:46.778Z,19.35
2022-09-10T13:54:37.785Z,21.00
2022-09-10T13:57:24.835Z,21.58
2022-09-10T14:00:15.779Z,19.63
2022-09-10T14:02:54.999Z,22.35
2022-09-10T14:05:56.772Z,23.02
2022-09-10T14:08:30.497Z,19.98
2022-09-10T14:11:27.847Z,18.98
2022-09-10T14:14:30.777Z,21.38
2022-09-10T14:17:13.837Z,18.73
2022-09-10T14:20:09.913Z,19.65
2022-09-10T14:22:51.782Z,20.95
2022-09-10T14:25:51.839Z,18.50
2022-09-10T14:28:38.796Z,20.25
2022-09-10T14:31:27.992Z,16.83
2022-09-10T14:34:38.778Z,17.67
2022-09-10T14:37:48.790Z,19.90
2022-09-10T14:40:53.846Z,18.42
2022-09-10T14:43:47.838Z,18.38
2022-09-10T14:46:54.195Z,17.48
2022-09-10T14:49:44.794Z,16.42
2022-09-10T14:52:19.087Z,16.75
2022-09-10T14:55:07.855Z,16.92
2022-09-10T14:57:41.337Z,16.50
2022-09-10T15:00:32.793Z,19.00
2022-09-10T15:03:05.853Z,17.00
2022-09-10T15:05:52.805Z,16.85
2022-09-10T15:08:32.801Z,18.00
2022-09-10T15:11:33.837Z,17.67
2022-09-10T15:14:22.801Z,17.30
2022-09-10T15:16:56.907Z,15.65
2022-09-10T15:19:43.820Z,16.80
2022-09-10T15:22:26.888Z,17.40
2022-09-10T15:25:13.824Z,17.48
2022-09-10T15:27:46.890Z,16.23
2022-09-10T15:30:33.825Z,16.17
2022-09-10T15:33:09.897Z,18.38
2022-09-10T15:35:56.824Z,15.48
2022-09-10T15:38:30.896Z,16.08
2022-09-10T15:41:19.818Z,19.98
2022-09-10T15:43:53.893Z,16.50
2022-09-10T15:46:40.880Z,16.00
2022-09-10T15:49:20.853Z,16.90
2022-09-10T15:52:14.848Z,17.33
2022-09-10T15:55:08.817Z,16.70
2022-09-10T15:57:56.886Z,18.38
2022-09-10T16:00:29.903Z,19.73
2022-09-10T16:03:17.839Z,19.00
2022-09-10T16:05:57.829Z,20.55
2022-09-10T16:08:44.841Z,21.80
2022-09-10T16:11:18.231Z,21.25
2022-09-10T16:14:05.840Z,20.48
2022-09-10T16:16:47.850Z,21.35
2022-09-10T16:19:41.839Z,21.30
2022-09-10T16:22:28.851Z,19.75
2022-09-10T16:25:08.831Z,17.70
2022-09-10T16:27:55.825Z,20.25
2022-09-10T16:30:29.378Z,18.80
2022-09-10T16:33:15.834Z,18.65
2022-09-10T16:35:55.862Z,20.05
2022-09-10T16:38:49.863Z,20.70
2022-09-10T16:41:37.870Z,19.90
2022-09-10T16:44:11.910Z,19.42
2022-09-10T16:46:58.835Z,19.40
2022-09-10T16:49:38.851Z,19.58
2022-09-10T16:52:32.853Z,19.85
2022-09-10T16:55:26.950Z,17.30
2022-09-10T16:58:20.863Z,18.98
2022-09-10T17:01:15.939Z,19.33
2022-09-10T17:04:18.125Z,18.55
2022-09-10T17:07:12.872Z,18.15
2022-09-10T17:10:06.912Z,19.08
2022-09-10T17:13:00.867Z,17.63
2022-09-10T17:15:49.910Z,17.52
2022-09-10T17:18:22.962Z,17.92
2022-09-10T17:21:09.887Z,17.45
2022-09-10T17:23:50.887Z,17.67
2022-09-10T17:26:45.904Z,19.35
2022-09-10T17:29:32.899Z,20.05
2022-09-10T17:32:05.932Z,19.00
2022-09-10T17:34:53.902Z,17.77
2022-09-10T17:37:33.887Z,20.42
2022-09-10T17:40:20.934Z,18.70
2022-09-10T17:42:55.959Z,18.88
2022-09-10T17:45:42.893Z,20.65
2022-09-10T17:48:15.970Z,19.17
2022-09-10T17:51:02.901Z,18.15
2022-09-10T17:53:36.979Z,20.20
2022-09-10T17:56:25.885Z,20.67
2022-09-10T17:59:16.918Z,20.45
2022-09-10T18:02:04.966Z,20.88
2022-09-10T18:04:45.885Z,22.35
2022-09-10T18:07:32.905Z,21.90
2022-09-10T18:10:05.987Z,21.42
2022-09-10T18:12:56.049Z,20.77
2022-09-10T18:15:33.101Z,22.08
2022-09-10T18:18:19.895Z,23.08
2022-09-10T18:20:53.121Z,21.42
2022-09-10T18:23:39.942Z,21.70
2022-09-10T18:26:24.005Z,23.83
2022-09-10T18:29:17.907Z,21.00
2022-09-10T18:31:57.077Z,21.05
2022-09-10T18:34:43.917Z,22.42
2022-09-10T18:37:23.927Z,23.23
2022-09-10T18:40:19.993Z,19.83
2022-09-10T18:43:06.908Z,21.95
2022-09-10T18:45:40.035Z,21.15
2022-09-10T18:48:26.919Z,20.92
2022-09-10T18:50:59.999Z,19.08
2022-09-10T18:53:47.945Z,17.92
2022-09-10T18:56:24.007Z,21.90
2022-09-10T18:59:15.923Z,19.88
2022-09-10T19:01:57.047Z,20.20
2022-09-10T19:05:07.389Z,22.27
2022-09-10T19:07:43.945Z,22.75
2022-09-10T19:10:37.912Z,20.73
2022-09-10T19:13:31.924Z,22.17
2022-09-10T19:16:25.911Z,22.17
2022-09-10T19:19:12.923Z,21.63
2022-09-10T19:21:46.025Z,22.40
2022-09-10T19:24:53.357Z,22.15
2022-09-10T19:27:32.930Z,21.92
2022-09-10T19:30:26.944Z,22.23
2022-09-10T19:33:21.947Z,24.42
2022-09-10T19:36:15.933Z,23.20
2022-09-10T19:38:49.241Z,23.63
2022-09-10T19:41:35.947Z,21.95
2022-09-10T19:44:10.031Z,23.35
2022-09-10T19:46:56.955Z,24.60
2022-09-10T19:49:29.996Z,24.83
2022-09-10T19:52:17.977Z,24.67
2022-09-10T19:54:57.940Z,24.70
2022-09-10T19:57:51.953Z,26.10
2022-09-10T20:00:46.847Z,27.20
2022-09-10T20:03:27.977Z,25.83
2022-09-10T20:06:21.957Z,24.45
2022-09-10T20:09:16.949Z,24.90
2022-09-10T20:12:10.981Z,25.55
2022-09-10T20:14:57.958Z,25.90
2022-09-10T20:17:31.079Z,24.30
2022-09-10T20:20:17.992Z,23.83
2022-09-10T20:22:51.608Z,23.73
2022-09-10T20:25:37.980Z,23.65
2022-09-10T20:28:13.252Z,23.27
2022-09-10T20:30:59.987Z,20.42
2022-09-10T20:33:33.037Z,22.52
2022-09-10T20:36:24.001Z,23.02
2022-09-10T20:38:58.044Z,24.70
2022-09-10T20:41:46.948Z,25.80
2022-09-10T20:44:23.139Z,24.33
2022-09-10T20:47:09.962Z,25.20
2022-09-10T20:49:50.999Z,26.13
2022-09-10T20:52:44.972Z,25.42
2022-09-10T20:55:38.995Z,24.10
2022-09-10T20:58:25.978Z,24.58
2022-09-10T21:01:05.983Z,25.35
2022-09-10T21:04:01.982Z,22.77
2022-09-10T21:06:55.983Z,24.33
2022-09-10T21:09:43.017Z,24.08
2022-09-10T21:12:16.149Z,23.20
2022-09-10T21:15:03.006Z,23.67
2022-09-10T21:17:36.077Z,23.17
2022-09-10T21:20:22.990Z,21.77
2022-09-10T21:22:56.525Z,23.60
2022-09-10T21:25:42.984Z,24.05
2022-09-10T21:28:16.082Z,20.88
2022-09-10T21:31:09.031Z,22.67
2022-09-10T21:33:43.373Z,22.65
2022-09-10T21:36:30.012Z,22.17
2022-09-10T21:39:08.173Z,23.95
2022-09-10T21:41:57.004Z,25.35
2022-09-10T21:44:39.005Z,22.65
2022-09-10T21:47:26.042Z,23.10
2022-09-10T21:50:06.005Z,23.95
2022-09-10T21:53:00.011Z,24.55
2022-09-10T21:55:47.019Z,24.40
2022-09-10T21:58:20.072Z,23.67
2022-09-10T22:01:07.027Z,23.50
2022-09-10T22:03:40.126Z,22.88
2022-09-10T22:06:29.997Z,24.17
2022-09-10T22:09:09.104Z,25.25
2022-09-10T22:12:04.015Z,25.80
2022-09-10T22:14:51.031Z,23.55
2022-09-10T22:17:24.579Z,24.63
2022-09-10T22:20:12.060Z,23.67
2022-09-10T22:22:45.105Z,24.20
2022-09-10T22:25:32.019Z,25.52
2022-09-10T22:28:05.120Z,23.67
2022-09-10T22:30:52.044Z,23.77
2022-09-10T22:33:32.026Z,23.00
2022-09-10T22:36:23.039Z,25.08
2022-09-10T22:39:08.036Z,25.70
2022-09-10T22:41:56.023Z,23.45
2022-09-10T22:44:29.088Z,23.10
2022-09-10T22:47:16.046Z,23.65
2022-09-10T22:49:49.094Z,24.50
2022-09-10T22:52:39.045Z,24.73
2022-09-10T22:55:13.543Z,25.80
2022-09-10T22:58:00.039Z,24.77
2022-09-10T23:00:33.132Z,23.63
2022-09-10T23:03:20.085Z,25.02
2022-09-10T23:06:00.043Z,23.60
2022-09-10T23:08:49.042Z,22.85
2022-09-10T23:11:26.337Z,22.17
2022-09-10T23:14:19.086Z,23.75
2022-09-10T23:17:01.060Z,23.17
2022-09-10T23:19:55.052Z,22.10
2022-09-10T23:22:42.067Z,21.58
2022-09-10T23:25:15.163Z,20.88
2022-09-10T23:28:06.696Z,21.10
2022-09-10T23:30:40.163Z,22.90
2022-09-10T23:33:27.071Z,23.05
2022-09-10T23:36:00.175Z,24.38
2022-09-10T23:38:49.076Z,23.10
2022-09-10T23:41:29.063Z,21.48
2022-09-10T23:44:23.086Z,24.67
2022-09-10T23:47:10.060Z,24.70
2022-09-10T23:49:50.044Z,23.42
2022-09-10T23:52:44.067Z,23.45
2022-09-10T23:55:31.065Z,23.08
2022-09-10T23:58:04.147Z,23.40
